Time;durP1;ratioP1;P1;durP2;ratioP2;P2;SDS_P1;SDS_P2;PMS_P1;PMS_P2;Temp;Humidity;BMP_temperature;BMP_pressure;BME280_temperature;BME280_humidity;BME280_pressure;Samples;Min_cycle;Max_cycle;Signal;HPM_P1;HPM_P2
2021/03/26 00:01:44;;;;;;;14.00;7.10;;;;;;;;;;5176221;27;20202;-73
2021/03/26 00:04:10;;;;;;;13.95;6.60;;;;;;;;;;5176206;27;20639;-73
2021/03/26 00:06:38;;;;;;;15.18;7.72;;;;;;;;;;5176387;27;20598;-72
2021/03/26 00:09:05;;;;;;;14.25;8.10;;;;;;;;;;5175925;27;20198;-74
2021/03/26 00:11:32;;;;;;;17.92;8.40;;;;;;;;;;5176405;27;20666;-73
2021/03/26 00:13:58;;;;;;;17.05;7.43;;;;;;;;;;5175891;27;20234;-72
2021/03/26 00:16:25;;;;;;;17.55;8.13;;;;;;;;;;5175846;27;20205;-73
2021/03/26 00:18:51;;;;;;;14.57;7.80;;;;;;;;;;5176259;27;20201;-74
2021/03/26 00:21:18;;;;;;;18.73;8.63;;;;;;;;;;5176345;27;20200;-73
2021/03/26 00:23:45;;;;;;;18.40;8.63;;;;;;;;;;5176109;27;20209;-73
2021/03/26 00:26:11;;;;;;;11.77;7.38;;;;;;;;;;5175621;27;20198;-75
2021/03/26 00:28:37;;;;;;;19.85;8.38;;;;;;;;;;5176226;27;20607;-75
2021/03/26 00:31:03;;;;;;;22.92;10.40;;;;;;;;;;5176075;27;20632;-73
2021/03/26 00:33:29;;;;;;;17.55;7.50;;;;;;;;;;5175487;27;20267;-73
2021/03/26 00:35:56;;;;;;;13.35;8.27;;;;;;;;;;5175691;27;20638;-73
2021/03/26 00:38:22;;;;;;;12.95;7.93;;;;;;;;;;5174913;27;20230;-73
2021/03/26 00:40:49;;;;;;;12.60;8.45;;;;;;;;;;5175526;27;20284;-73
2021/03/26 00:43:15;;;;;;;15.82;8.77;;;;;;;;;;5175532;27;20207;-73
2021/03/26 00:45:42;;;;;;;17.35;9.00;;;;;;;;;;5175943;27;20293;-72
2021/03/26 00:48:10;;;;;;;22.27;10.20;;;;;;;;;;5175541;27;20170;-74
2021/03/26 00:50:37;;;;;;;16.98;9.90;;;;;;;;;;5175182;27;20201;-72
2021/03/26 00:53:05;;;;;;;17.65;9.10;;;;;;;;;;5175095;27;20196;-72
2021/03/26 00:55:32;;;;;;;20.38;9.02;;;;;;;;;;5175153;27;20190;-72
2021/03/26 00:57:59;;;;;;;16.05;9.95;;;;;;;;;;5174830;27;20197;-73
2021/03/26 01:00:26;;;;;;;21.63;10.25;;;;;;;;;;5174951;27;20208;-73
2021/03/26 01:02:52;;;;;;;14.57;9.20;;;;;;;;;;5175561;27;20538;-73
2021/03/26 01:05:20;;;;;;;18.60;9.10;;;;;;;;;;5174771;27;20232;-73
2021/03/26 01:07:46;;;;;;;15.30;9.57;;;;;;;;;;5174706;27;20201;-73
2021/03/26 01:10:13;;;;;;;22.77;10.15;;;;;;;;;;5174685;27;20197;-73
2021/03/26 01:12:39;;;;;;;21.10;10.70;;;;;;;;;;5175094;27;20662;-74
2021/03/26 01:15:07;;;;;;;17.63;10.50;;;;;;;;;;5175625;27;20288;-73
2021/03/26 01:17:33;;;;;;;18.70;10.95;;;;;;;;;;5174945;27;20203;-73
2021/03/26 01:20:00;;;;;;;16.80;8.70;;;;;;;;;;5174824;27;20201;-73
2021/03/26 01:22:26;;;;;;;18.05;10.32;;;;;;;;;;5175059;27;20197;-72
2021/03/26 01:24:52;;;;;;;14.65;8.73;;;;;;;;;;5175232;27;20201;-72
2021/03/26 01:27:18;;;;;;;18.77;9.45;;;;;;;;;;5174793;27;20244;-73
2021/03/26 01:29:44;;;;;;;15.10;9.25;;;;;;;;;;5175080;27;20624;-73
2021/03/26 01:32:11;;;;;;;14.05;9.68;;;;;;;;;;5175088;27;20579;-72
2021/03/26 01:34:37;;;;;;;18.30;10.68;;;;;;;;;;5174632;27;20249;-73
2021/03/26 01:37:04;;;;;;;14.90;9.35;;;;;;;;;;5174574;27;20725;-72
2021/03/26 01:39:30;;;;;;;18.73;9.90;;;;;;;;;;5174797;27;20205;-74
2021/03/26 01:41:56;;;;;;;18.70;9.93;;;;;;;;;;5174403;27;20204;-74
2021/03/26 01:44:25;;;;;;;16.27;8.90;;;;;;;;;;5174714;27;20241;-73
2021/03/26 01:46:52;;;;;;;22.77;10.43;;;;;;;;;;5174501;27;20193;-73
2021/03/26 01:49:19;;;;;;;14.23;8.90;;;;;;;;;;5174943;27;20177;-73
2021/03/26 01:51:46;;;;;;;18.52;8.82;;;;;;;;;;5181671;27;20702;-73
2021/03/26 01:54:15;;;;;;;17.67;9.93;;;;;;;;;;5181170;27;20629;-73
2021/03/26 01:56:42;;;;;;;14.20;8.90;;;;;;;;;;5181439;27;20550;-73
2021/03/26 01:59:08;;;;;;;12.90;8.27;;;;;;;;;;5181781;27;20204;-73
2021/03/26 02:01:36;;;;;;;14.88;8.73;;;;;;;;;;5181728;27;20248;-72
2021/03/26 02:04:04;;;;;;;16.27;9.38;;;;;;;;;;5181445;27;20255;-73
2021/03/26 02:06:32;;;;;;;15.50;9.40;;;;;;;;;;5181531;27;20249;-73
2021/03/26 02:09:01;;;;;;;14.15;10.07;;;;;;;;;;5181685;27;20243;-72
2021/03/26 02:11:28;;;;;;;17.63;8.52;;;;;;;;;;5181737;27;20257;-72
2021/03/26 02:13:56;;;;;;;20.75;10.57;;;;;;;;;;5181544;27;20260;-73
2021/03/26 02:16:22;;;;;;;18.33;10.43;;;;;;;;;;5181541;27;20653;-72
2021/03/26 02:18:49;;;;;;;13.25;8.60;;;;;;;;;;5181227;27;20583;-72
2021/03/26 02:21:16;;;;;;;15.63;9.32;;;;;;;;;;5181562;27;20205;-73
2021/03/26 02:23:44;;;;;;;18.13;10.00;;;;;;;;;;5181586;27;20209;-73
2021/03/26 02:26:12;;;;;;;18.42;9.35;;;;;;;;;;5181415;27;20201;-72
2021/03/26 02:28:38;;;;;;;15.27;9.23;;;;;;;;;;5181556;27;20208;-72
2021/03/26 02:31:04;;;;;;;21.10;9.85;;;;;;;;;;5181619;27;20185;-73
2021/03/26 02:33:30;;;;;;;20.20;9.38;;;;;;;;;;5181283;27;20204;-73
2021/03/26 02:36:16;;;;;;;13.45;9.23;;;;;;;;;;5181323;27;20220;-73
2021/03/26 02:38:46;;;;;;;15.63;9.65;;;;;;;;;;5181827;27;20933;-73
2021/03/26 02:41:15;;;;;;;19.52;9.35;;;;;;;;;;5181062;27;20288;-73
2021/03/26 02:43:44;;;;;;;13.95;9.25;;;;;;;;;;5181337;27;20550;-73
2021/03/26 02:46:15;;;;;;;21.63;9.23;;;;;;;;;;5181302;27;20177;-73
2021/03/26 02:48:43;;;;;;;20.00;10.02;;;;;;;;;;5180925;27;20181;-73
2021/03/26 02:51:11;;;;;;;15.98;9.18;;;;;;;;;;5181185;27;20205;-73
2021/03/26 02:53:42;;;;;;;20.80;9.57;;;;;;;;;;5180973;27;20194;-73
2021/03/26 02:56:11;;;;;;;17.17;10.00;;;;;;;;;;5180418;27;20204;-74
2021/03/26 02:58:39;;;;;;;13.75;8.45;;;;;;;;;;5181402;27;20674;-72
2021/03/26 03:01:07;;;;;;;20.92;9.70;;;;;;;;;;5179488;27;20204;-73
2021/03/26 03:03:35;;;;;;;16.60;8.60;;;;;;;;;;5177760;27;20189;-73
2021/03/26 03:06:05;;;;;;;11.73;8.30;;;;;;;;;;5177595;27;20225;-72
2021/03/26 03:08:33;;;;;;;17.88;9.68;;;;;;;;;;5177866;27;20197;-72
2021/03/26 03:11:01;;;;;;;16.35;8.38;;;;;;;;;;5177909;27;20197;-72
2021/03/26 03:13:33;;;;;;;16.63;10.38;;;;;;;;;;5177217;27;20287;-72
2021/03/26 03:16:02;;;;;;;20.98;9.90;;;;;;;;;;5177564;27;20196;-73
2021/03/26 03:18:29;;;;;;;17.25;10.15;;;;;;;;;;5177174;27;20197;-72
2021/03/26 03:20:59;;;;;;;16.13;8.73;;;;;;;;;;5177020;27;20251;-72
2021/03/26 03:23:28;;;;;;;17.10;8.25;;;;;;;;;;5177163;27;20208;-72
2021/03/26 03:25:56;;;;;;;21.85;10.45;;;;;;;;;;5176894;27;20224;-74
2021/03/26 03:28:26;;;;;;;19.45;8.70;;;;;;;;;;5177150;27;20200;-73
2021/03/26 03:30:59;;;;;;;19.55;8.93;;;;;;;;;;5177343;27;20189;-72
2021/03/26 03:33:38;;;;;;;27.50;9.50;;;;;;;;;;5177089;27;20288;-73
2021/03/26 03:36:06;;;;;;;19.00;9.10;;;;;;;;;;5176647;27;20674;-73
2021/03/26 03:38:46;;;;;;;22.30;9.10;;;;;;;;;;5177087;27;20201;-73
2021/03/26 03:41:14;;;;;;;20.42;7.80;;;;;;;;;;5176571;27;20204;-73
2021/03/26 03:43:43;;;;;;;21.23;11.02;;;;;;;;;;5176817;27;20232;-73
2021/03/26 03:46:11;;;;;;;18.27;7.68;;;;;;;;;;5176605;27;20234;-74
2021/03/26 03:48:41;;;;;;;23.23;9.05;;;;;;;;;;5176770;27;20651;-72
2021/03/26 03:51:09;;;;;;;21.52;9.95;;;;;;;;;;5176469;27;20197;-72
2021/03/26 03:53:38;;;;;;;14.18;9.10;;;;;;;;;;5176818;27;20205;-73
2021/03/26 03:56:06;;;;;;;18.70;10.93;;;;;;;;;;5177308;27;20949;-72
2021/03/26 03:58:34;;;;;;;18.38;8.93;;;;;;;;;;5177018;27;20205;-72
2021/03/26 04:01:02;;;;;;;19.73;9.13;;;;;;;;;;5176742;27;20208;-73
2021/03/26 04:03:31;;;;;;;13.27;7.53;;;;;;;;;;5176354;27;20196;-72
2021/03/26 04:06:00;;;;;;;16.88;8.30;;;;;;;;;;5176537;27;20213;-73
2021/03/26 04:08:28;;;;;;;14.80;9.10;;;;;;;;;;5176413;27;20252;-73
2021/03/26 04:10:57;;;;;;;15.13;8.48;;;;;;;;;;5176453;27;20569;-73
2021/03/26 04:13:23;;;;;;;23.50;10.65;;;;;;;;;;5176374;27;20230;-72
2021/03/26 04:15:53;;;;;;;17.02;9.95;;;;;;;;;;5176412;27;20233;-73
2021/03/26 04:18:22;;;;;;;20.45;11.00;;;;;;;;;;5175793;27;20201;-73
2021/03/26 04:20:52;;;;;;;16.75;9.10;;;;;;;;;;5176259;27;20186;-72
2021/03/26 04:23:19;;;;;;;17.27;9.32;;;;;;;;;;5175798;27;20228;-73
2021/03/26 04:25:49;;;;;;;16.60;9.43;;;;;;;;;;5175741;27;20223;-73
2021/03/26 04:28:17;;;;;;;15.90;9.88;;;;;;;;;;5176043;27;20203;-74
2021/03/26 04:30:47;;;;;;;16.30;8.98;;;;;;;;;;5176381;27;20436;-74
2021/03/26 04:33:13;;;;;;;18.13;10.10;;;;;;;;;;5176100;27;20197;-73
2021/03/26 04:35:39;;;;;;;20.70;9.32;;;;;;;;;;5175675;27;20232;-73
2021/03/26 04:38:09;;;;;;;23.13;10.50;;;;;;;;;;5175991;27;20192;-72
2021/03/26 04:40:37;;;;;;;23.20;10.07;;;;;;;;;;5175408;27;20194;-72
2021/03/26 04:43:08;;;;;;;15.02;8.07;;;;;;;;;;5175710;27;20201;-73
2021/03/26 04:45:42;;;;;;;16.50;9.38;;;;;;;;;;5175273;27;20221;-74
2021/03/26 04:48:12;;;;;;;19.45;8.90;;;;;;;;;;5175209;27;20200;-72
2021/03/26 04:50:41;;;;;;;16.42;10.18;;;;;;;;;;5175107;27;20245;-72
2021/03/26 04:53:11;;;;;;;21.25;10.90;;;;;;;;;;5175620;27;20196;-73
2021/03/26 04:55:39;;;;;;;19.27;8.57;;;;;;;;;;5175153;27;20284;-72
2021/03/26 04:58:07;;;;;;;16.52;8.38;;;;;;;;;;5174895;27;20178;-73
2021/03/26 05:00:35;;;;;;;19.77;10.68;;;;;;;;;;5175005;27;20264;-73
2021/03/26 05:03:03;;;;;;;16.58;9.85;;;;;;;;;;5174854;27;20558;-72
2021/03/26 05:05:30;;;;;;;16.45;9.43;;;;;;;;;;5175376;27;20606;-72
2021/03/26 05:07:59;;;;;;;21.75;11.57;;;;;;;;;;5174937;27;20249;-72
2021/03/26 05:10:27;;;;;;;19.80;10.52;;;;;;;;;;5174888;27;20204;-72
2021/03/26 05:12:56;;;;;;;20.90;11.55;;;;;;;;;;5175275;27;20623;-72
2021/03/26 05:15:25;;;;;;;18.60;11.45;;;;;;;;;;5174984;27;20193;-73
2021/03/26 05:17:53;;;;;;;23.90;11.38;;;;;;;;;;5174728;27;20208;-73
2021/03/26 05:20:22;;;;;;;23.40;11.00;;;;;;;;;;5175142;27;20205;-72
2021/03/26 05:22:52;;;;;;;22.83;10.18;;;;;;;;;;5175052;27;20197;-72
2021/03/26 05:25:22;;;;;;;25.13;11.77;;;;;;;;;;5174081;27;20233;-73
2021/03/26 05:27:49;;;;;;;24.98;14.23;;;;;;;;;;5174629;27;20226;-72
2021/03/26 05:30:18;;;;;;;25.80;10.43;;;;;;;;;;5174466;27;20197;-72
2021/03/26 05:32:45;;;;;;;19.55;10.40;;;;;;;;;;5174935;27;20209;-72
2021/03/26 05:35:21;;;;;;;28.33;12.05;;;;;;;;;;5174952;27;20283;-73
2021/03/26 05:37:52;;;;;;;20.23;10.25;;;;;;;;;;5174320;27;20205;-73
2021/03/26 05:40:31;;;;;;;20.45;10.88;;;;;;;;;;5174925;27;20627;-73
2021/03/26 05:43:02;;;;;;;23.13;10.80;;;;;;;;;;5174995;27;20607;-73
2021/03/26 05:45:43;;;;;;;22.08;11.38;;;;;;;;;;5174682;27;20216;-73
2021/03/26 05:48:19;;;;;;;19.45;11.32;;;;;;;;;;5171333;27;20204;-72
2021/03/26 05:50:52;;;;;;;22.35;10.80;;;;;;;;;;5174792;27;20260;-72
2021/03/26 05:53:24;;;;;;;23.05;11.43;;;;;;;;;;5174714;27;20205;-71
2021/03/26 05:55:51;;;;;;;20.33;11.02;;;;;;;;;;5174645;27;20312;-73
2021/03/26 05:58:24;;;;;;;23.33;11.30;;;;;;;;;;5174552;27;20233;-73
2021/03/26 06:01:02;;;;;;;17.73;10.45;;;;;;;;;;5174120;27;20283;-74
2021/03/26 06:03:48;;;;;;;20.10;11.40;;;;;;;;;;5174990;27;20950;-73
2021/03/26 06:06:30;;;;;;;24.00;12.18;;;;;;;;;;5174460;27;20205;-73
2021/03/26 06:09:00;;;;;;;23.30;10.70;;;;;;;;;;5174349;27;20217;-72
2021/03/26 06:11:37;;;;;;;24.85;13.48;;;;;;;;;;5174321;27;20319;-72
2021/03/26 06:14:23;;;;;;;25.63;12.32;;;;;;;;;;5174489;27;20601;-72
2021/03/26 06:17:04;;;;;;;27.30;10.43;;;;;;;;;;5174284;27;20313;-72
2021/03/26 06:19:57;;;;;;;26.40;14.52;;;;;;;;;;5174340;27;20217;-73
2021/03/26 06:22:29;;;;;;;21.50;12.50;;;;;;;;;;5173810;27;20236;-73
2021/03/26 06:25:02;;;;;;;21.55;12.23;;;;;;;;;;5174088;27;20317;-72
2021/03/26 06:27:30;;;;;;;21.83;12.63;;;;;;;;;;5174166;27;20214;-72
2021/03/26 06:30:00;;;;;;;27.55;12.45;;;;;;;;;;5174002;27;20292;-73
2021/03/26 06:32:47;;;;;;;22.48;11.85;;;;;;;;;;5174280;27;20232;-72
2021/03/26 06:35:33;;;;;;;26.00;12.02;;;;;;;;;;5173762;27;20193;-73
2021/03/26 06:38:17;;;;;;;21.25;12.82;;;;;;;;;;5176900;27;20216;-73
2021/03/26 06:40:50;;;;;;;20.13;10.00;;;;;;;;;;5177621;27;20204;-74
2021/03/26 06:43:28;;;;;;;26.25;12.50;;;;;;;;;;5177383;27;20221;-74
2021/03/26 06:46:07;;;;;;;18.38;11.82;;;;;;;;;;5177357;27;20244;-74
2021/03/26 06:48:39;;;;;;;19.25;10.02;;;;;;;;;;5177809;27;20216;-73
2021/03/26 06:51:27;;;;;;;29.70;13.02;;;;;;;;;;5177662;27;20188;-74
2021/03/26 06:53:59;;;;;;;26.33;12.30;;;;;;;;;;5177867;27;20225;-75
2021/03/26 06:56:44;;;;;;;22.98;12.52;;;;;;;;;;5177223;27;20574;-73
2021/03/26 06:59:19;;;;;;;27.58;12.38;;;;;;;;;;5177856;27;20186;-73
2021/03/26 07:01:54;;;;;;;16.63;10.23;;;;;;;;;;5177926;27;20186;-73
2021/03/26 07:04:33;;;;;;;23.98;10.35;;;;;;;;;;5177943;27;20605;-72
2021/03/26 07:07:16;;;;;;;23.45;10.77;;;;;;;;;;5177815;27;20254;-73
2021/03/26 07:09:51;;;;;;;19.00;10.10;;;;;;;;;;5177911;27;20542;-74
2021/03/26 07:12:21;;;;;;;32.63;13.70;;;;;;;;;;5177219;27;20217;-73
2021/03/26 07:15:00;;;;;;;23.10;12.63;;;;;;;;;;5177415;27;20190;-74
2021/03/26 07:17:41;;;;;;;18.52;10.10;;;;;;;;;;5177247;27;20330;-72
2021/03/26 07:20:16;;;;;;;23.42;9.70;;;;;;;;;;5142984;27;20252;-72
2021/03/26 07:23:03;;;;;;;20.17;9.18;;;;;;;;;;5177165;27;20196;-73
2021/03/26 07:25:39;;;;;;;18.98;10.55;;;;;;;;;;5133631;27;20236;-73
2021/03/26 07:28:13;;;;;;;20.23;9.48;;;;;;;;;;5177566;27;20179;-73
2021/03/26 07:30:46;;;;;;;16.95;10.77;;;;;;;;;;5177121;27;20236;-71
2021/03/26 07:33:21;;;;;;;16.88;11.02;;;;;;;;;;5177169;27;20190;-72
2021/03/26 07:36:11;;;;;;;23.40;10.98;;;;;;;;;;5176788;27;20244;-72
2021/03/26 07:38:54;;;;;;;19.63;9.38;;;;;;;;;;5176305;27;20182;-73
2021/03/26 07:41:31;;;;;;;17.60;10.30;;;;;;;;;;5124539;27;20249;-72
2021/03/26 07:44:03;;;;;;;14.75;8.43;;;;;;;;;;5176709;27;20618;-72
2021/03/26 07:46:47;;;;;;;19.30;10.13;;;;;;;;;;5176438;27;20214;-72
2021/03/26 07:49:22;;;;;;;15.63;10.25;;;;;;;;;;5176164;27;20227;-73
2021/03/26 07:51:53;;;;;;;21.73;11.27;;;;;;;;;;5177139;27;20621;-71
2021/03/26 07:54:32;;;;;;;20.42;11.20;;;;;;;;;;5176176;27;20246;-73
2021/03/26 07:57:13;;;;;;;15.85;9.85;;;;;;;;;;5176330;27;20195;-72
2021/03/26 07:59:48;;;;;;;16.20;9.95;;;;;;;;;;5158600;27;20760;-72
2021/03/26 08:02:17;;;;;;;20.15;9.15;;;;;;;;;;5176508;27;20189;-71
2021/03/26 08:04:47;;;;;;;15.95;9.88;;;;;;;;;;5176384;27;20224;-72
2021/03/26 08:07:29;;;;;;;20.50;10.98;;;;;;;;;;5176307;27;20641;-72
2021/03/26 08:10:09;;;;;;;19.25;8.35;;;;;;;;;;5176307;27;20185;-73
2021/03/26 08:12:42;;;;;;;17.05;10.85;;;;;;;;;;5176343;27;20585;-72
2021/03/26 08:15:16;;;;;;;22.60;11.50;;;;;;;;;;5175879;27;20264;-71
2021/03/26 08:17:46;;;;;;;19.45;8.77;;;;;;;;;;5176289;27;20180;-71
2021/03/26 08:20:16;;;;;;;22.17;9.43;;;;;;;;;;5176260;27;20592;-72
2021/03/26 08:22:49;;;;;;;15.70;9.55;;;;;;;;;;5175621;27;20204;-73
2021/03/26 08:25:27;;;;;;;16.98;9.05;;;;;;;;;;5175396;27;20293;-73
2021/03/26 08:27:56;;;;;;;16.95;9.63;;;;;;;;;;5175294;27;20234;-73
2021/03/26 08:30:33;;;;;;;16.60;8.57;;;;;;;;;;5175720;27;20182;-73
2021/03/26 08:33:04;;;;;;;17.20;8.35;;;;;;;;;;5175902;27;20557;-73
2021/03/26 08:35:39;;;;;;;10.57;7.13;;;;;;;;;;5175641;27;20611;-72
2021/03/26 08:38:18;;;;;;;17.75;8.50;;;;;;;;;;5175423;27;20634;-72
2021/03/26 08:40:49;;;;;;;17.90;7.45;;;;;;;;;;5175023;27;20177;-71
2021/03/26 08:43:17;;;;;;;9.70;5.90;;;;;;;;;;5175386;27;20546;-72
2021/03/26 08:45:45;;;;;;;12.65;7.65;;;;;;;;;;5175572;27;20198;-71
2021/03/26 08:48:18;;;;;;;12.75;6.15;;;;;;;;;;5175822;27;20197;-72
2021/03/26 08:50:47;;;;;;;11.00;6.78;;;;;;;;;;5175740;27;20197;-73
2021/03/26 08:53:28;;;;;;;20.27;7.18;;;;;;;;;;5175664;27;20197;-72
2021/03/26 08:56:04;;;;;;;11.13;5.22;;;;;;;;;;5175493;27;20630;-73
2021/03/26 08:58:49;;;;;;;8.82;5.10;;;;;;;;;;5174946;27;20193;-71
2021/03/26 09:01:36;;;;;;;11.57;6.78;;;;;;;;;;5174363;27;20222;-71
2021/03/26 09:04:10;;;;;;;9.65;5.35;;;;;;;;;;5175297;27;20638;-72
2021/03/26 09:06:40;;;;;;;10.00;5.28;;;;;;;;;;5174917;27;20220;-72
2021/03/26 09:09:24;;;;;;;7.75;5.75;;;;;;;;;;5174788;27;20199;-71
2021/03/26 09:12:09;;;;;;;8.00;6.07;;;;;;;;;;5157192;27;20300;-72
2021/03/26 09:14:46;;;;;;;7.75;5.15;;;;;;;;;;5174717;27;20937;-72
2021/03/26 09:17:15;;;;;;;8.98;4.78;;;;;;;;;;5174356;27;20198;-73
2021/03/26 09:19:43;;;;;;;7.85;4.68;;;;;;;;;;5174581;27;20633;-72
2021/03/26 09:22:17;;;;;;;6.63;3.75;;;;;;;;;;5174174;27;20206;-73
2021/03/26 09:25:01;;;;;;;8.32;4.88;;;;;;;;;;5174995;27;20372;-72
2021/03/26 09:27:30;;;;;;;5.80;3.83;;;;;;;;;;5173984;27;20297;-72
2021/03/26 09:30:04;;;;;;;5.78;4.25;;;;;;;;;;5174559;27;20666;-73
2021/03/26 09:32:30;;;;;;;6.30;3.85;;;;;;;;;;5174168;27;20181;-71
2021/03/26 09:35:03;;;;;;;8.38;5.00;;;;;;;;;;5174727;27;20202;-73
2021/03/26 09:37:34;;;;;;;8.10;4.65;;;;;;;;;;5174662;27;20232;-73
2021/03/26 09:40:02;;;;;;;5.68;3.53;;;;;;;;;;5174258;27;20191;-73
2021/03/26 09:42:33;;;;;;;9.52;4.57;;;;;;;;;;5174354;27;20210;-71
2021/03/26 09:45:05;;;;;;;5.20;3.63;;;;;;;;;;5173680;27;20220;-73
2021/03/26 09:47:34;;;;;;;7.63;4.10;;;;;;;;;;5174347;27;20202;-72
2021/03/26 09:50:02;;;;;;;8.43;3.83;;;;;;;;;;5174357;27;20206;-73
2021/03/26 09:52:30;;;;;;;5.78;3.53;;;;;;;;;;5174103;27;20199;-72
2021/03/26 09:55:02;;;;;;;6.50;3.10;;;;;;;;;;5174147;27;20185;-72
2021/03/26 09:57:32;;;;;;;5.57;3.40;;;;;;;;;;5174019;27;20195;-72
2021/03/26 10:00:14;;;;;;;4.60;3.33;;;;;;;;;;5173984;27;20185;-73
2021/03/26 10:02:46;;;;;;;4.55;2.85;;;;;;;;;;5174190;27;20196;-72
2021/03/26 10:05:14;;;;;;;4.53;3.13;;;;;;;;;;5174358;27;20310;-73
2021/03/26 10:07:44;;;;;;;3.80;3.25;;;;;;;;;;5174568;27;20181;-72
2021/03/26 10:12:58;;;;;;;3.95;2.60;;;;;;;;;;5163982;27;20192;-73
2021/03/26 10:15:26;;;;;;;8.48;2.72;;;;;;;;;;5178197;27;20585;-71
2021/03/26 10:17:56;;;;;;;3.08;2.53;;;;;;;;;;5177963;27;20197;-72
2021/03/26 10:20:29;;;;;;;4.50;3.13;;;;;;;;;;5178580;27;20193;-73
2021/03/26 10:23:19;;;;;;;4.32;2.97;;;;;;;;;;5177961;27;20185;-72
2021/03/26 10:25:48;;;;;;;3.85;3.00;;;;;;;;;;5157150;27;20227;-73
2021/03/26 10:28:21;;;;;;;5.72;3.45;;;;;;;;;;5178269;27;20205;-72
2021/03/26 10:30:51;;;;;;;4.03;3.05;;;;;;;;;;5178761;27;20193;-72
2021/03/26 10:33:18;;;;;;;3.90;2.60;;;;;;;;;;5178566;27;20196;-72
2021/03/26 10:35:51;;;;;;;3.67;2.60;;;;;;;;;;5178014;27;20228;-72
2021/03/26 10:38:21;;;;;;;3.15;2.00;;;;;;;;;;5178256;27;20209;-73
2021/03/26 10:40:50;;;;;;;5.10;2.60;;;;;;;;;;5177880;27;20212;-72
2021/03/26 10:43:18;;;;;;;6.35;3.00;;;;;;;;;;5177527;27;20205;-73
2021/03/26 10:45:53;;;;;;;4.05;2.75;;;;;;;;;;5177464;27;20285;-72
2021/03/26 10:48:25;;;;;;;8.10;3.20;;;;;;;;;;5177783;27;20181;-73
2021/03/26 10:51:17;;;;;;;3.15;2.40;;;;;;;;;;5177642;27;20182;-73
2021/03/26 10:53:47;;;;;;;4.10;2.38;;;;;;;;;;5177477;27;20192;-72
2021/03/26 10:56:22;;;;;;;4.57;2.50;;;;;;;;;;5177296;27;20177;-73
2021/03/26 10:58:49;;;;;;;4.95;2.40;;;;;;;;;;5177891;27;20188;-73
2021/03/26 11:01:18;;;;;;;4.80;2.40;;;;;;;;;;5177603;27;20190;-72
2021/03/26 11:03:49;;;;;;;8.23;3.03;;;;;;;;;;5177431;27;20186;-72
2021/03/26 11:06:23;;;;;;;4.75;3.20;;;;;;;;;;5177089;27;20579;-73
2021/03/26 11:09:02;;;;;;;3.17;2.88;;;;;;;;;;5177408;27;20280;-73
2021/03/26 11:11:31;;;;;;;4.00;2.97;;;;;;;;;;5177273;27;20197;-74
2021/03/26 11:14:16;;;;;;;9.43;3.25;;;;;;;;;;5177184;27;20190;-72
2021/03/26 11:16:47;;;;;;;3.70;3.20;;;;;;;;;;5177339;27;20646;-73
2021/03/26 11:19:21;;;;;;;7.05;3.92;;;;;;;;;;5176833;27;20217;-72
2021/03/26 11:21:49;;;;;;;2.95;2.55;;;;;;;;;;5176737;27;20187;-72
2021/03/26 11:24:15;;;;;;;6.28;3.17;;;;;;;;;;5176025;27;20257;-72
2021/03/26 11:26:44;;;;;;;5.47;2.72;;;;;;;;;;5177064;27;20293;-72
2021/03/26 11:29:17;;;;;;;5.43;4.05;;;;;;;;;;5176490;27;20295;-74
2021/03/26 11:31:48;;;;;;;5.10;3.35;;;;;;;;;;5176210;27;20275;-73
2021/03/26 11:34:21;;;;;;;4.25;2.45;;;;;;;;;;5176605;27;20199;-73
2021/03/26 11:36:53;;;;;;;5.38;2.85;;;;;;;;;;5176306;27;20229;-72
2021/03/26 11:39:25;;;;;;;3.90;2.72;;;;;;;;;;5176317;27;20197;-72
2021/03/26 11:41:54;;;;;;;3.70;2.35;;;;;;;;;;5176238;27;20187;-72
2021/03/26 11:44:21;;;;;;;5.15;3.30;;;;;;;;;;5176751;27;20181;-74
2021/03/26 11:46:50;;;;;;;6.70;3.13;;;;;;;;;;5176556;27;20229;-74
2021/03/26 11:49:18;;;;;;;4.82;3.45;;;;;;;;;;5176458;27;20209;-74
2021/03/26 11:51:48;;;;;;;5.88;3.33;;;;;;;;;;5176198;27;20287;-74
2021/03/26 11:54:21;;;;;;;7.40;4.15;;;;;;;;;;5176174;27;20182;-72
2021/03/26 11:56:58;;;;;;;8.85;3.63;;;;;;;;;;5176133;27;20237;-73
2021/03/26 11:59:45;;;;;;;4.43;3.42;;;;;;;;;;5176032;27;20208;-73
2021/03/26 12:02:31;;;;;;;6.45;2.40;;;;;;;;;;5175903;27;20200;-72
2021/03/26 12:05:03;;;;;;;6.35;3.15;;;;;;;;;;5132604;27;20217;-73
2021/03/26 12:07:36;;;;;;;6.15;3.70;;;;;;;;;;5176031;27;20177;-74
2021/03/26 12:10:06;;;;;;;4.85;3.80;;;;;;;;;;5176587;27;20216;-73
2021/03/26 12:12:37;;;;;;;5.40;3.75;;;;;;;;;;5166222;27;20190;-73
2021/03/26 12:15:05;;;;;;;6.50;3.20;;;;;;;;;;5155424;27;20546;-73
2021/03/26 12:17:34;;;;;;;3.42;3.10;;;;;;;;;;5154802;27;20330;-72
2021/03/26 12:20:00;;;;;;;9.23;4.32;;;;;;;;;;5154935;27;20206;-73
2021/03/26 12:22:30;;;;;;;3.75;3.20;;;;;;;;;;5154609;27;20200;-74
2021/03/26 12:25:01;;;;;;;7.25;3.60;;;;;;;;;;5154658;27;20202;-74
2021/03/26 12:27:29;;;;;;;5.07;3.50;;;;;;;;;;5155087;27;20179;-72
2021/03/26 12:29:58;;;;;;;6.22;4.05;;;;;;;;;;5155022;27;20651;-74
2021/03/26 12:32:33;;;;;;;4.97;3.50;;;;;;;;;;5155102;27;20241;-73
2021/03/26 12:35:02;;;;;;;5.10;3.35;;;;;;;;;;5155420;27;20547;-73
2021/03/26 12:37:33;;;;;;;6.18;3.95;;;;;;;;;;5154849;27;20693;-73
2021/03/26 12:40:06;;;;;;;6.47;4.57;;;;;;;;;;5155101;27;20206;-74
2021/03/26 12:42:37;;;;;;;3.92;3.08;;;;;;;;;;5155371;27;20201;-73
2021/03/26 12:45:07;;;;;;;6.13;3.20;;;;;;;;;;5155297;27;20241;-73
2021/03/26 12:47:33;;;;;;;8.43;4.45;;;;;;;;;;5154837;27;20197;-74
2021/03/26 12:50:04;;;;;;;6.25;3.80;;;;;;;;;;5154657;27;20198;-72
2021/03/26 12:52:43;;;;;;;5.22;3.85;;;;;;;;;;5154273;27;20202;-73
2021/03/26 12:55:23;;;;;;;7.05;4.40;;;;;;;;;;5154821;27;20237;-72
2021/03/26 12:57:53;;;;;;;5.28;4.05;;;;;;;;;;5155080;27;20612;-73
2021/03/26 13:00:23;;;;;;;7.10;3.95;;;;;;;;;;5155002;27;20208;-73
2021/03/26 13:02:56;;;;;;;5.78;3.67;;;;;;;;;;5154946;27;20286;-73
2021/03/26 13:05:23;;;;;;;8.80;4.47;;;;;;;;;;5154352;27;20200;-74
2021/03/26 13:07:56;;;;;;;8.93;4.65;;;;;;;;;;5154744;27;20191;-72
2021/03/26 13:10:28;;;;;;;9.57;5.38;;;;;;;;;;5153879;27;20725;-72
2021/03/26 13:13:01;;;;;;;8.95;4.20;;;;;;;;;;5154553;27;20207;-74
2021/03/26 13:15:29;;;;;;;9.30;5.28;;;;;;;;;;5154227;27;20598;-73
2021/03/26 13:18:02;;;;;;;9.30;4.22;;;;;;;;;;5154642;27;20580;-72
2021/03/26 13:20:28;;;;;;;5.05;3.75;;;;;;;;;;5154367;27;20186;-72
2021/03/26 13:22:56;;;;;;;8.13;3.60;;;;;;;;;;5154173;27;20209;-72
2021/03/26 13:25:26;;;;;;;5.63;3.70;;;;;;;;;;5153685;27;20459;-72
2021/03/26 13:28:05;;;;;;;5.23;3.07;;;;;;;;;;5154313;27;20427;-74
2021/03/26 13:30:44;;;;;;;4.72;2.35;;;;;;;;;;5153833;27;20483;-71
2021/03/26 13:33:34;;;;;;;3.10;2.40;;;;;;;;;;5154241;27;20185;-71
2021/03/26 13:36:06;;;;;;;6.78;3.03;;;;;;;;;;5153788;27;20486;-70
2021/03/26 13:38:48;;;;;;;6.40;3.03;;;;;;;;;;5154448;27;20272;-69
2021/03/26 13:41:21;;;;;;;4.72;3.10;;;;;;;;;;5153741;27;20247;-71
2021/03/26 13:44:03;;;;;;;4.97;2.90;;;;;;;;;;5153789;27;20290;-72
2021/03/26 13:46:31;;;;;;;6.05;4.07;;;;;;;;;;5153274;27;20222;-71
2021/03/26 13:49:07;;;;;;;5.10;2.27;;;;;;;;;;5154501;27;20530;-71
2021/03/26 13:51:35;;;;;;;5.10;3.00;;;;;;;;;;5154518;27;20434;-70
2021/03/26 13:54:10;;;;;;;2.90;2.53;;;;;;;;;;5153221;27;20847;-72
2021/03/26 13:56:41;;;;;;;3.67;2.40;;;;;;;;;;5152780;27;20438;-69
2021/03/26 13:59:15;;;;;;;4.87;2.90;;;;;;;;;;5153622;27;20427;-72
2021/03/26 14:01:45;;;;;;;5.40;3.30;;;;;;;;;;5153414;27;20479;-71
2021/03/26 14:04:14;;;;;;;5.70;3.73;;;;;;;;;;5153642;27;20935;-71
2021/03/26 14:06:45;;;;;;;2.80;2.30;;;;;;;;;;5153492;27;20471;-71
2021/03/26 14:09:17;;;;;;;3.53;2.07;;;;;;;;;;5153582;27;20438;-71
2021/03/26 14:11:52;;;;;;;4.27;2.60;;;;;;;;;;5153883;27;21236;-71
2021/03/26 14:14:21;;;;;;;7.22;3.25;;;;;;;;;;5153344;27;20437;-72
2021/03/26 14:16:51;;;;;;;5.30;2.70;;;;;;;;;;5153115;27;20226;-71
2021/03/26 14:19:21;;;;;;;3.75;2.78;;;;;;;;;;5153687;27;20981;-70
2021/03/26 14:21:51;;;;;;;4.78;4.05;;;;;;;;;;5153631;27;20215;-70
2021/03/26 14:24:24;;;;;;;5.17;2.57;;;;;;;;;;5153696;27;20186;-69
2021/03/26 14:27:04;;;;;;;5.35;3.33;;;;;;;;;;5152942;27;20486;-70
2021/03/26 14:29:36;;;;;;;2.90;2.37;;;;;;;;;;5153623;27;20620;-71
2021/03/26 14:32:06;;;;;;;14.13;6.63;;;;;;;;;;5153538;27;20540;-70
2021/03/26 14:34:34;;;;;;;4.77;3.00;;;;;;;;;;5153435;27;20443;-70
2021/03/26 14:37:02;;;;;;;4.13;2.20;;;;;;;;;;5152545;27;20493;-70
2021/03/26 14:39:29;;;;;;;4.67;3.33;;;;;;;;;;5152986;27;20449;-71
2021/03/26 14:41:57;;;;;;;4.95;2.60;;;;;;;;;;5153201;27;20454;-71
2021/03/26 14:44:25;;;;;;;3.33;2.25;;;;;;;;;;5153265;27;20213;-71
2021/03/26 14:46:57;;;;;;;6.43;2.80;;;;;;;;;;5152906;27;20685;-71
2021/03/26 14:49:30;;;;;;;3.72;2.95;;;;;;;;;;5153225;27;20215;-71
2021/03/26 14:52:00;;;;;;;4.55;2.30;;;;;;;;;;5153030;27;20250;-71
2021/03/26 14:54:28;;;;;;;4.60;2.60;;;;;;;;;;5153186;27;20265;-70
2021/03/26 14:57:00;;;;;;;3.70;3.03;;;;;;;;;;5152991;27;20201;-71
2021/03/26 14:59:31;;;;;;;4.85;2.65;;;;;;;;;;5156591;27;20218;-72